sensor_id;sensor_type;location;lat;lon;timestamp;P1;durP1;ratioP1;P2;durP2;ratioP2
68951;SDS011;56000;51.146;17.112;2023-12-20T00:01:39;11.20;;;7.20;;
68951;SDS011;56000;51.146;17.112;2023-12-20T00:04:12;12.70;;;8.00;;
68951;SDS011;56000;51.146;17.112;2023-12-20T00:06:45;9.90;;;6.20;;
68951;SDS011;56000;51.146;17.112;2023-12-20T00:09:18;15.50;;;9.00;;
68951;SDS011;56000;51.146;17.112;2023-12-20T00:11:51;11.60;;;7.60;;
68951;SDS011;56000;51.146;17.112;2023-12-20T00:14:24;14.40;;;7.30;;
68951;SDS011;56000;51.146;17.112;2023-12-20T00:16:57;11.50;;;7.30;;
68951;SDS011;56000;51.146;17.112;2023-12-20T00:19:29;14.80;;;7.50;;
68951;SDS011;56000;51.146;17.112;2023-12-20T00:22:05;11.30;;;7.40;;
68951;SDS011;56000;51.146;17.112;2023-12-20T00:24:37;12.40;;;5.90;;
68951;SDS011;56000;51.146;17.112;2023-12-20T00:27:10;12.40;;;7.30;;
68951;SDS011;56000;51.146;17.112;2023-12-20T00:31:23;18.30;;;8.40;;
68951;SDS011;56000;51.146;17.112;2023-12-20T00:33:56;14.50;;;6.90;;
68951;SDS011;56000;51.146;17.112;2023-12-20T00:36:29;14.80;;;9.00;;
68951;SDS011;56000;51.146;17.112;2023-12-20T00:39:02;15.60;;;9.50;;
68951;SDS011;56000;51.146;17.112;2023-12-20T00:41:36;14.30;;;7.80;;
68951;SDS011;56000;51.146;17.112;2023-12-20T00:44:09;14.50;;;9.10;;
68951;SDS011;56000;51.146;17.112;2023-12-20T00:46:42;19.50;;;10.60;;
68951;SDS011;56000;51.146;17.112;2023-12-20T00:49:15;14.90;;;8.20;;
68951;SDS011;56000;51.146;17.112;2023-12-20T00:51:47;22.90;;;11.80;;
68951;SDS011;56000;51.146;17.112;2023-12-20T00:54:22;13.80;;;8.50;;
68951;SDS011;56000;51.146;17.112;2023-12-20T00:56:55;17.70;;;7.90;;
68951;SDS011;56000;51.146;17.112;2023-12-20T00:59:28;9.80;;;6.10;;
68951;SDS011;56000;51.146;17.112;2023-12-20T01:02:01;11.10;;;6.30;;
68951;SDS011;56000;51.146;17.112;2023-12-20T01:04:34;15.30;;;7.10;;
68951;SDS011;56000;51.146;17.112;2023-12-20T01:07:07;11.80;;;7.20;;
68951;SDS011;56000;51.146;17.112;2023-12-20T01:09:40;13.20;;;6.30;;
68951;SDS011;56000;51.146;17.112;2023-12-20T01:12:14;13.30;;;7.60;;
68951;SDS011;56000;51.146;17.112;2023-12-20T01:14:47;10.80;;;7.50;;
68951;SDS011;56000;51.146;17.112;2023-12-20T01:17:20;12.10;;;7.00;;
68951;SDS011;56000;51.146;17.112;2023-12-20T01:19:52;13.70;;;7.70;;
68951;SDS011;56000;51.146;17.112;2023-12-20T01:22:25;13.20;;;6.30;;
68951;SDS011;56000;51.146;17.112;2023-12-20T01:24:58;11.50;;;6.40;;
68951;SDS011;56000;51.146;17.112;2023-12-20T01:27:32;14.80;;;6.60;;
68951;SDS011;56000;51.146;17.112;2023-12-20T01:30:06;12.50;;;6.60;;
68951;SDS011;56000;51.146;17.112;2023-12-20T01:32:40;11.30;;;6.80;;
68951;SDS011;56000;51.146;17.112;2023-12-20T01:35:13;9.10;;;6.10;;
68951;SDS011;56000;51.146;17.112;2023-12-20T01:37:46;9.80;;;5.50;;
68951;SDS011;56000;51.146;17.112;2023-12-20T01:40:19;11.40;;;6.00;;
68951;SDS011;56000;51.146;17.112;2023-12-20T01:43:00;8.80;;;5.80;;
68951;SDS011;56000;51.146;17.112;2023-12-20T01:45:41;11.30;;;6.50;;
68951;SDS011;56000;51.146;17.112;2023-12-20T01:48:14;11.40;;;6.60;;
68951;SDS011;56000;51.146;17.112;2023-12-20T01:50:47;9.60;;;5.50;;
68951;SDS011;56000;51.146;17.112;2023-12-20T01:53:21;10.10;;;6.00;;
68951;SDS011;56000;51.146;17.112;2023-12-20T01:55:57;11.30;;;5.90;;
68951;SDS011;56000;51.146;17.112;2023-12-20T01:58:31;10.10;;;6.70;;
68951;SDS011;56000;51.146;17.112;2023-12-20T02:01:04;12.20;;;6.20;;
68951;SDS011;56000;51.146;17.112;2023-12-20T02:03:37;9.00;;;4.90;;
68951;SDS011;56000;51.146;17.112;2023-12-20T02:06:10;9.70;;;5.00;;
68951;SDS011;56000;51.146;17.112;2023-12-20T02:08:44;11.10;;;5.50;;
68951;SDS011;56000;51.146;17.112;2023-12-20T02:11:16;9.20;;;5.50;;
68951;SDS011;56000;51.146;17.112;2023-12-20T02:13:49;10.00;;;5.30;;
68951;SDS011;56000;51.146;17.112;2023-12-20T02:16:22;8.60;;;5.30;;
68951;SDS011;56000;51.146;17.112;2023-12-20T02:18:55;8.00;;;4.40;;
68951;SDS011;56000;51.146;17.112;2023-12-20T02:21:33;7.80;;;4.50;;
68951;SDS011;56000;51.146;17.112;2023-12-20T02:24:06;7.70;;;4.10;;
68951;SDS011;56000;51.146;17.112;2023-12-20T02:26:39;7.60;;;4.20;;
68951;SDS011;56000;51.146;17.112;2023-12-20T02:29:16;6.50;;;4.10;;
68951;SDS011;56000;51.146;17.112;2023-12-20T02:31:48;6.80;;;4.10;;
68951;SDS011;56000;51.146;17.112;2023-12-20T02:34:21;3.50;;;2.50;;
68951;SDS011;56000;51.146;17.112;2023-12-20T02:36:54;4.30;;;2.90;;
68951;SDS011;56000;51.146;17.112;2023-12-20T02:39:27;6.50;;;3.20;;
68951;SDS011;56000;51.146;17.112;2023-12-20T02:41:59;4.80;;;3.20;;
68951;SDS011;56000;51.146;17.112;2023-12-20T02:44:32;5.40;;;3.30;;
68951;SDS011;56000;51.146;17.112;2023-12-20T02:47:06;5.70;;;3.00;;
68951;SDS011;56000;51.146;17.112;2023-12-20T02:49:39;8.70;;;4.20;;
68951;SDS011;56000;51.146;17.112;2023-12-20T02:52:12;6.20;;;3.60;;
68951;SDS011;56000;51.146;17.112;2023-12-20T02:54:45;7.50;;;3.90;;
68951;SDS011;56000;51.146;17.112;2023-12-20T02:57:18;6.60;;;3.30;;
68951;SDS011;56000;51.146;17.112;2023-12-20T02:59:53;6.90;;;3.00;;
68951;SDS011;56000;51.146;17.112;2023-12-20T03:02:25;6.60;;;3.10;;
68951;SDS011;56000;51.146;17.112;2023-12-20T03:04:58;9.60;;;4.30;;
68951;SDS011;56000;51.146;17.112;2023-12-20T03:07:31;9.10;;;4.00;;
68951;SDS011;56000;51.146;17.112;2023-12-20T03:10:05;6.30;;;3.40;;
68951;SDS011;56000;51.146;17.112;2023-12-20T03:12:52;5.60;;;2.90;;
68951;SDS011;56000;51.146;17.112;2023-12-20T03:15:25;5.10;;;3.00;;
68951;SDS011;56000;51.146;17.112;2023-12-20T03:17:57;4.90;;;3.40;;
68951;SDS011;56000;51.146;17.112;2023-12-20T03:20:31;5.60;;;3.40;;
68951;SDS011;56000;51.146;17.112;2023-12-20T03:23:04;5.70;;;3.10;;
68951;SDS011;56000;51.146;17.112;2023-12-20T03:25:37;3.90;;;2.60;;
68951;SDS011;56000;51.146;17.112;2023-12-20T03:28:09;5.50;;;3.30;;
68951;SDS011;56000;51.146;17.112;2023-12-20T03:30:45;4.50;;;3.00;;
68951;SDS011;56000;51.146;17.112;2023-12-20T03:33:18;5.20;;;2.90;;
68951;SDS011;56000;51.146;17.112;2023-12-20T03:35:51;2.50;;;1.80;;
68951;SDS011;56000;51.146;17.112;2023-12-20T03:38:24;3.40;;;2.70;;
68951;SDS011;56000;51.146;17.112;2023-12-20T03:40:56;3.80;;;2.20;;
68951;SDS011;56000;51.146;17.112;2023-12-20T03:43:30;2.00;;;1.80;;
68951;SDS011;56000;51.146;17.112;2023-12-20T03:46:03;3.80;;;1.80;;
68951;SDS011;56000;51.146;17.112;2023-12-20T03:48:36;3.70;;;2.10;;
68951;SDS011;56000;51.146;17.112;2023-12-20T03:51:09;2.90;;;1.80;;
68951;SDS011;56000;51.146;17.112;2023-12-20T03:53:42;3.30;;;1.90;;
68951;SDS011;56000;51.146;17.112;2023-12-20T03:56:14;4.80;;;2.30;;
68951;SDS011;56000;51.146;17.112;2023-12-20T03:58:47;2.30;;;1.70;;
68951;SDS011;56000;51.146;17.112;2023-12-20T04:01:20;3.50;;;1.70;;
68951;SDS011;56000;51.146;17.112;2023-12-20T04:03:53;1.50;;;1.40;;
68951;SDS011;56000;51.146;17.112;2023-12-20T04:06:26;2.50;;;1.80;;
68951;SDS011;56000;51.146;17.112;2023-12-20T04:08:59;3.60;;;1.70;;
68951;SDS011;56000;51.146;17.112;2023-12-20T04:11:32;2.30;;;1.50;;
68951;SDS011;56000;51.146;17.112;2023-12-20T04:14:05;1.80;;;1.60;;
68951;SDS011;56000;51.146;17.112;2023-12-20T04:16:38;1.90;;;1.10;;
68951;SDS011;56000;51.146;17.112;2023-12-20T04:19:15;2.80;;;2.00;;
68951;SDS011;56000;51.146;17.112;2023-12-20T04:21:48;1.80;;;1.30;;
68951;SDS011;56000;51.146;17.112;2023-12-20T04:24:21;3.50;;;1.80;;
68951;SDS011;56000;51.146;17.112;2023-12-20T04:26:54;2.30;;;1.70;;
68951;SDS011;56000;51.146;17.112;2023-12-20T04:29:27;4.50;;;1.40;;
68951;SDS011;56000;51.146;17.112;2023-12-20T04:32:00;3.40;;;1.70;;
68951;SDS011;56000;51.146;17.112;2023-12-20T04:34:33;1.70;;;1.60;;
68951;SDS011;56000;51.146;17.112;2023-12-20T04:37:05;2.10;;;1.60;;
68951;SDS011;56000;51.146;17.112;2023-12-20T04:39:38;2.70;;;1.50;;
68951;SDS011;56000;51.146;17.112;2023-12-20T04:42:11;1.50;;;1.40;;
68951;SDS011;56000;51.146;17.112;2023-12-20T04:44:44;1.70;;;1.60;;
68951;SDS011;56000;51.146;17.112;2023-12-20T04:47:17;3.20;;;1.50;;
68951;SDS011;56000;51.146;17.112;2023-12-20T04:49:50;2.10;;;1.60;;
68951;SDS011;56000;51.146;17.112;2023-12-20T04:52:23;1.80;;;1.40;;
68951;SDS011;56000;51.146;17.112;2023-12-20T04:54:56;2.00;;;1.60;;
68951;SDS011;56000;51.146;17.112;2023-12-20T04:57:29;2.30;;;1.40;;
68951;SDS011;56000;51.146;17.112;2023-12-20T05:00:02;2.60;;;1.60;;
68951;SDS011;56000;51.146;17.112;2023-12-20T05:02:38;2.10;;;1.40;;
68951;SDS011;56000;51.146;17.112;2023-12-20T05:05:11;1.90;;;1.50;;
68951;SDS011;56000;51.146;17.112;2023-12-20T05:07:45;1.20;;;1.10;;
68951;SDS011;56000;51.146;17.112;2023-12-20T05:10:18;2.50;;;2.00;;
68951;SDS011;56000;51.146;17.112;2023-12-20T05:12:51;2.80;;;2.10;;
68951;SDS011;56000;51.146;17.112;2023-12-20T05:15:24;2.70;;;2.00;;
68951;SDS011;56000;51.146;17.112;2023-12-20T05:17:57;3.00;;;2.10;;
68951;SDS011;56000;51.146;17.112;2023-12-20T05:20:29;4.00;;;2.50;;
68951;SDS011;56000;51.146;17.112;2023-12-20T05:23:02;2.80;;;2.10;;
68951;SDS011;56000;51.146;17.112;2023-12-20T05:25:35;3.40;;;2.00;;
68951;SDS011;56000;51.146;17.112;2023-12-20T05:28:08;5.10;;;2.20;;
68951;SDS011;56000;51.146;17.112;2023-12-20T05:30:41;3.30;;;2.20;;
68951;SDS011;56000;51.146;17.112;2023-12-20T05:33:14;3.00;;;2.10;;
68951;SDS011;56000;51.146;17.112;2023-12-20T05:35:47;6.50;;;2.10;;
68951;SDS011;56000;51.146;17.112;2023-12-20T05:38:20;5.30;;;2.00;;
68951;SDS011;56000;51.146;17.112;2023-12-20T05:40:53;2.00;;;1.80;;
68951;SDS011;56000;51.146;17.112;2023-12-20T05:43:25;3.20;;;2.10;;
68951;SDS011;56000;51.146;17.112;2023-12-20T05:45:58;4.00;;;2.70;;
68951;SDS011;56000;51.146;17.112;2023-12-20T05:48:31;2.50;;;1.90;;
68951;SDS011;56000;51.146;17.112;2023-12-20T05:51:04;4.40;;;2.80;;
68951;SDS011;56000;51.146;17.112;2023-12-20T05:53:40;4.80;;;3.00;;
68951;SDS011;56000;51.146;17.112;2023-12-20T05:56:13;3.60;;;2.60;;
68951;SDS011;56000;51.146;17.112;2023-12-20T05:58:46;3.80;;;2.50;;
68951;SDS011;56000;51.146;17.112;2023-12-20T06:01:19;4.20;;;2.40;;
68951;SDS011;56000;51.146;17.112;2023-12-20T06:03:52;4.80;;;2.40;;
68951;SDS011;56000;51.146;17.112;2023-12-20T06:06:24;2.60;;;2.30;;
68951;SDS011;56000;51.146;17.112;2023-12-20T06:08:58;3.40;;;2.60;;
68951;SDS011;56000;51.146;17.112;2023-12-20T06:11:32;9.10;;;2.50;;
68951;SDS011;56000;51.146;17.112;2023-12-20T06:14:05;3.70;;;2.30;;
68951;SDS011;56000;51.146;17.112;2023-12-20T06:16:38;1.90;;;1.70;;
68951;SDS011;56000;51.146;17.112;2023-12-20T06:19:10;3.00;;;2.40;;
68951;SDS011;56000;51.146;17.112;2023-12-20T06:21:43;4.50;;;2.20;;
68951;SDS011;56000;51.146;17.112;2023-12-20T06:24:16;3.60;;;2.60;;
68951;SDS011;56000;51.146;17.112;2023-12-20T06:26:49;4.30;;;2.70;;
68951;SDS011;56000;51.146;17.112;2023-12-20T06:29:22;5.50;;;3.10;;
68951;SDS011;56000;51.146;17.112;2023-12-20T06:31:55;3.00;;;2.60;;
68951;SDS011;56000;51.146;17.112;2023-12-20T06:34:28;6.10;;;3.30;;
68951;SDS011;56000;51.146;17.112;2023-12-20T06:37:01;4.00;;;2.70;;
68951;SDS011;56000;51.146;17.112;2023-12-20T06:39:35;4.80;;;2.40;;
68951;SDS011;56000;51.146;17.112;2023-12-20T06:42:08;2.80;;;2.20;;
68951;SDS011;56000;51.146;17.112;2023-12-20T06:44:40;1.90;;;1.50;;
68951;SDS011;56000;51.146;17.112;2023-12-20T06:47:13;2.00;;;1.60;;
68951;SDS011;56000;51.146;17.112;2023-12-20T06:49:46;2.30;;;2.10;;
68951;SDS011;56000;51.146;17.112;2023-12-20T06:52:19;1.80;;;1.70;;
68951;SDS011;56000;51.146;17.112;2023-12-20T06:54:52;4.40;;;2.50;;
68951;SDS011;56000;51.146;17.112;2023-12-20T06:57:25;3.10;;;2.30;;
68951;SDS011;56000;51.146;17.112;2023-12-20T06:59:58;3.40;;;1.80;;
68951;SDS011;56000;51.146;17.112;2023-12-20T07:02:30;2.30;;;1.90;;
68951;SDS011;56000;51.146;17.112;2023-12-20T07:05:04;2.20;;;1.70;;
68951;SDS011;56000;51.146;17.112;2023-12-20T07:07:38;3.80;;;2.40;;
68951;SDS011;56000;51.146;17.112;2023-12-20T07:10:11;2.60;;;2.00;;
68951;SDS011;56000;51.146;17.112;2023-12-20T07:12:44;3.90;;;2.30;;
68951;SDS011;56000;51.146;17.112;2023-12-20T07:15:18;2.70;;;2.10;;
68951;SDS011;56000;51.146;17.112;2023-12-20T07:17:51;2.80;;;2.10;;
68951;SDS011;56000;51.146;17.112;2023-12-20T07:20:24;3.40;;;2.20;;
68951;SDS011;56000;51.146;17.112;2023-12-20T07:22:57;4.00;;;2.20;;
68951;SDS011;56000;51.146;17.112;2023-12-20T07:25:30;3.60;;;2.00;;
68951;SDS011;56000;51.146;17.112;2023-12-20T07:28:03;2.20;;;2.00;;
68951;SDS011;56000;51.146;17.112;2023-12-20T07:30:37;2.30;;;1.80;;
68951;SDS011;56000;51.146;17.112;2023-12-20T07:33:10;3.50;;;2.00;;
68951;SDS011;56000;51.146;17.112;2023-12-20T07:35:43;1.90;;;1.60;;
68951;SDS011;56000;51.146;17.112;2023-12-20T07:38:17;2.40;;;1.80;;
68951;SDS011;56000;51.146;17.112;2023-12-20T07:40:49;1.60;;;1.50;;
68951;SDS011;56000;51.146;17.112;2023-12-20T07:43:22;3.80;;;1.70;;
68951;SDS011;56000;51.146;17.112;2023-12-20T07:45:55;1.70;;;1.50;;
68951;SDS011;56000;51.146;17.112;2023-12-20T07:48:28;4.00;;;1.40;;
68951;SDS011;56000;51.146;17.112;2023-12-20T07:51:01;2.40;;;1.60;;
68951;SDS011;56000;51.146;17.112;2023-12-20T07:53:34;3.10;;;1.80;;
68951;SDS011;56000;51.146;17.112;2023-12-20T07:56:16;1.60;;;1.40;;
68951;SDS011;56000;51.146;17.112;2023-12-20T07:58:49;4.90;;;1.90;;
68951;SDS011;56000;51.146;17.112;2023-12-20T08:01:23;2.90;;;1.50;;
68951;SDS011;56000;51.146;17.112;2023-12-20T08:03:56;2.30;;;1.40;;
68951;SDS011;56000;51.146;17.112;2023-12-20T08:06:29;1.50;;;1.20;;
68951;SDS011;56000;51.146;17.112;2023-12-20T08:09:02;1.70;;;1.60;;
68951;SDS011;56000;51.146;17.112;2023-12-20T08:11:35;2.20;;;1.70;;
68951;SDS011;56000;51.146;17.112;2023-12-20T08:14:08;3.10;;;1.60;;
68951;SDS011;56000;51.146;17.112;2023-12-20T08:16:44;2.70;;;1.60;;
68951;SDS011;56000;51.146;17.112;2023-12-20T08:19:17;3.40;;;1.80;;
68951;SDS011;56000;51.146;17.112;2023-12-20T08:21:50;2.40;;;1.60;;
68951;SDS011;56000;51.146;17.112;2023-12-20T08:24:23;2.00;;;1.80;;
68951;SDS011;56000;51.146;17.112;2023-12-20T08:26:56;3.70;;;1.70;;
68951;SDS011;56000;51.146;17.112;2023-12-20T08:29:29;2.10;;;1.50;;
68951;SDS011;56000;51.146;17.112;2023-12-20T08:32:02;5.20;;;1.80;;
68951;SDS011;56000;51.146;17.112;2023-12-20T08:34:35;4.00;;;1.80;;
68951;SDS011;56000;51.146;17.112;2023-12-20T08:37:08;1.60;;;1.50;;
68951;SDS011;56000;51.146;17.112;2023-12-20T08:39:41;2.50;;;1.80;;
68951;SDS011;56000;51.146;17.112;2023-12-20T08:42:15;4.40;;;1.80;;
68951;SDS011;56000;51.146;17.112;2023-12-20T08:44:47;1.80;;;1.60;;
68951;SDS011;56000;51.146;17.112;2023-12-20T08:47:20;3.10;;;1.80;;
68951;SDS011;56000;51.146;17.112;2023-12-20T08:49:53;2.00;;;1.70;;
68951;SDS011;56000;51.146;17.112;2023-12-20T08:52:28;2.40;;;1.90;;
68951;SDS011;56000;51.146;17.112;2023-12-20T08:55:01;4.50;;;1.90;;
68951;SDS011;56000;51.146;17.112;2023-12-20T08:57:34;3.50;;;2.20;;
68951;SDS011;56000;51.146;17.112;2023-12-20T09:00:09;2.30;;;1.90;;
68951;SDS011;56000;51.146;17.112;2023-12-20T09:02:43;2.30;;;2.00;;
68951;SDS011;56000;51.146;17.112;2023-12-20T09:05:16;8.20;;;2.00;;
68951;SDS011;56000;51.146;17.112;2023-12-20T09:07:49;2.90;;;1.80;;
68951;SDS011;56000;51.146;17.112;2023-12-20T09:10:22;2.90;;;1.70;;
68951;SDS011;56000;51.146;17.112;2023-12-20T09:12:55;2.70;;;2.00;;
68951;SDS011;56000;51.146;17.112;2023-12-20T09:15:28;3.40;;;1.80;;
68951;SDS011;56000;51.146;17.112;2023-12-20T09:18:06;2.10;;;2.00;;
68951;SDS011;56000;51.146;17.112;2023-12-20T09:20:39;3.20;;;2.10;;
68951;SDS011;56000;51.146;17.112;2023-12-20T09:23:14;4.00;;;2.30;;
68951;SDS011;56000;51.146;17.112;2023-12-20T09:25:47;2.30;;;1.80;;
68951;SDS011;56000;51.146;17.112;2023-12-20T09:28:23;5.10;;;2.10;;
68951;SDS011;56000;51.146;17.112;2023-12-20T09:30:56;3.00;;;2.30;;
68951;SDS011;56000;51.146;17.112;2023-12-20T09:33:29;3.10;;;2.10;;
68951;SDS011;56000;51.146;17.112;2023-12-20T09:36:02;3.90;;;2.30;;
68951;SDS011;56000;51.146;17.112;2023-12-20T09:38:35;2.40;;;1.70;;
68951;SDS011;56000;51.146;17.112;2023-12-20T09:41:08;4.90;;;2.30;;
68951;SDS011;56000;51.146;17.112;2023-12-20T09:43:41;3.60;;;2.20;;
68951;SDS011;56000;51.146;17.112;2023-12-20T09:46:14;2.40;;;1.90;;
68951;SDS011;56000;51.146;17.112;2023-12-20T09:48:51;2.70;;;2.00;;
68951;SDS011;56000;51.146;17.112;2023-12-20T09:51:24;9.50;;;2.70;;
68951;SDS011;56000;51.146;17.112;2023-12-20T09:53:59;2.70;;;2.00;;
68951;SDS011;56000;51.146;17.112;2023-12-20T09:56:34;1.80;;;1.50;;
68951;SDS011;56000;51.146;17.112;2023-12-20T09:59:08;4.70;;;1.90;;
68951;SDS011;56000;51.146;17.112;2023-12-20T10:01:41;3.60;;;1.80;;
68951;SDS011;56000;51.146;17.112;2023-12-20T10:04:14;2.60;;;1.70;;
68951;SDS011;56000;51.146;17.112;2023-12-20T10:07:03;3.20;;;1.80;;
68951;SDS011;56000;51.146;17.112;2023-12-20T10:09:37;3.90;;;2.00;;
68951;SDS011;56000;51.146;17.112;2023-12-20T10:12:11;2.80;;;1.90;;
68951;SDS011;56000;51.146;17.112;2023-12-20T10:14:44;2.80;;;1.60;;
68951;SDS011;56000;51.146;17.112;2023-12-20T10:17:17;5.50;;;2.50;;
68951;SDS011;56000;51.146;17.112;2023-12-20T10:19:50;3.50;;;2.20;;
68951;SDS011;56000;51.146;17.112;2023-12-20T10:22:23;2.70;;;2.20;;
68951;SDS011;56000;51.146;17.112;2023-12-20T10:24:57;3.20;;;2.30;;
68951;SDS011;56000;51.146;17.112;2023-12-20T10:27:30;3.80;;;2.10;;
68951;SDS011;56000;51.146;17.112;2023-12-20T10:30:04;5.60;;;2.50;;
68951;SDS011;56000;51.146;17.112;2023-12-20T10:32:38;6.20;;;3.30;;
68951;SDS011;56000;51.146;17.112;2023-12-20T10:35:11;6.20;;;2.40;;
68951;SDS011;56000;51.146;17.112;2023-12-20T10:37:44;5.60;;;2.30;;
68951;SDS011;56000;51.146;17.112;2023-12-20T10:40:17;8.70;;;2.50;;
68951;SDS011;56000;51.146;17.112;2023-12-20T10:42:50;9.80;;;3.00;;
68951;SDS011;56000;51.146;17.112;2023-12-20T10:45:23;5.50;;;2.30;;
68951;SDS011;56000;51.146;17.112;2023-12-20T10:47:56;5.70;;;2.30;;
68951;SDS011;56000;51.146;17.112;2023-12-20T10:50:31;4.40;;;2.20;;
68951;SDS011;56000;51.146;17.112;2023-12-20T10:53:08;8.60;;;2.70;;
68951;SDS011;56000;51.146;17.112;2023-12-20T10:55:44;4.80;;;2.30;;
68951;SDS011;56000;51.146;17.112;2023-12-20T10:58:17;5.40;;;2.50;;
68951;SDS011;56000;51.146;17.112;2023-12-20T11:00:55;3.80;;;2.00;;
68951;SDS011;56000;51.146;17.112;2023-12-20T11:03:34;4.90;;;2.10;;
68951;SDS011;56000;51.146;17.112;2023-12-20T11:06:10;5.60;;;2.10;;
68951;SDS011;56000;51.146;17.112;2023-12-20T11:08:51;6.70;;;2.10;;
68951;SDS011;56000;51.146;17.112;2023-12-20T11:11:44;5.60;;;2.20;;
68951;SDS011;56000;51.146;17.112;2023-12-20T11:14:31;3.50;;;1.70;;
68951;SDS011;56000;51.146;17.112;2023-12-20T11:17:10;5.50;;;2.20;;
68951;SDS011;56000;51.146;17.112;2023-12-20T11:20:06;6.70;;;2.20;;
68951;SDS011;56000;51.146;17.112;2023-12-20T11:22:54;6.20;;;2.50;;
68951;SDS011;56000;51.146;17.112;2023-12-20T11:25:28;5.00;;;2.20;;
68951;SDS011;56000;51.146;17.112;2023-12-20T11:28:12;5.50;;;2.00;;
68951;SDS011;56000;51.146;17.112;2023-12-20T11:30:52;5.80;;;2.10;;
68951;SDS011;56000;51.146;17.112;2023-12-20T11:33:27;3.40;;;1.90;;
68951;SDS011;56000;51.146;17.112;2023-12-20T11:36:18;6.10;;;2.00;;
68951;SDS011;56000;51.146;17.112;2023-12-20T11:38:57;6.50;;;2.30;;
68951;SDS011;56000;51.146;17.112;2023-12-20T11:41:30;4.30;;;1.70;;
68951;SDS011;56000;51.146;17.112;2023-12-20T11:44:06;5.60;;;1.70;;
68951;SDS011;56000;51.146;17.112;2023-12-20T11:46:41;4.20;;;1.80;;
68951;SDS011;56000;51.146;17.112;2023-12-20T11:49:14;6.90;;;2.00;;
68951;SDS011;56000;51.146;17.112;2023-12-20T11:51:48;4.80;;;1.80;;
68951;SDS011;56000;51.146;17.112;2023-12-20T11:54:20;3.90;;;2.00;;
68951;SDS011;56000;51.146;17.112;2023-12-20T11:56:53;3.90;;;1.60;;
68951;SDS011;56000;51.146;17.112;2023-12-20T11:59:26;3.30;;;1.40;;
68951;SDS011;56000;51.146;17.112;2023-12-20T12:01:59;5.50;;;1.70;;
68951;SDS011;56000;51.146;17.112;2023-12-20T12:04:34;3.70;;;1.80;;
68951;SDS011;56000;51.146;17.112;2023-12-20T12:07:07;5.90;;;1.60;;
68951;SDS011;56000;51.146;17.112;2023-12-20T12:09:39;6.40;;;1.90;;
68951;SDS011;56000;51.146;17.112;2023-12-20T12:12:12;3.30;;;1.60;;
68951;SDS011;56000;51.146;17.112;2023-12-20T12:14:46;5.50;;;2.00;;
68951;SDS011;56000;51.146;17.112;2023-12-20T12:17:20;5.00;;;1.50;;
68951;SDS011;56000;51.146;17.112;2023-12-20T12:20:01;4.10;;;1.60;;
68951;SDS011;56000;51.146;17.112;2023-12-20T12:22:35;3.70;;;1.80;;
68951;SDS011;56000;51.146;17.112;2023-12-20T12:25:15;6.70;;;1.90;;
68951;SDS011;56000;51.146;17.112;2023-12-20T12:27:48;9.70;;;2.30;;
68951;SDS011;56000;51.146;17.112;2023-12-20T12:30:23;4.50;;;1.50;;
68951;SDS011;56000;51.146;17.112;2023-12-20T12:33:04;4.30;;;1.60;;
68951;SDS011;56000;51.146;17.112;2023-12-20T12:35:37;3.30;;;1.60;;
68951;SDS011;56000;51.146;17.112;2023-12-20T12:38:11;5.90;;;2.00;;
68951;SDS011;56000;51.146;17.112;2023-12-20T12:40:45;4.60;;;1.90;;
68951;SDS011;56000;51.146;17.112;2023-12-20T12:43:19;6.60;;;1.80;;
68951;SDS011;56000;51.146;17.112;2023-12-20T12:45:53;7.20;;;1.70;;
68951;SDS011;56000;51.146;17.112;2023-12-20T12:48:26;5.60;;;1.80;;
68951;SDS011;56000;51.146;17.112;2023-12-20T12:50:59;2.80;;;1.60;;
68951;SDS011;56000;51.146;17.112;2023-12-20T12:53:32;4.00;;;1.50;;
68951;SDS011;56000;51.146;17.112;2023-12-20T12:56:05;2.60;;;1.50;;
68951;SDS011;56000;51.146;17.112;2023-12-20T12:58:38;4.10;;;1.70;;
68951;SDS011;56000;51.146;17.112;2023-12-20T13:01:11;7.30;;;1.80;;
68951;SDS011;56000;51.146;17.112;2023-12-20T13:03:45;4.20;;;1.70;;
68951;SDS011;56000;51.146;17.112;2023-12-20T13:06:17;3.00;;;1.50;;
68951;SDS011;56000;51.146;17.112;2023-12-20T13:08:50;4.00;;;1.30;;
68951;SDS011;56000;51.146;17.112;2023-12-20T13:11:24;3.30;;;1.70;;
68951;SDS011;56000;51.146;17.112;2023-12-20T13:13:57;5.80;;;1.70;;
68951;SDS011;56000;51.146;17.112;2023-12-20T13:16:30;3.70;;;1.20;;
68951;SDS011;56000;51.146;17.112;2023-12-20T13:19:04;4.30;;;1.70;;
68951;SDS011;56000;51.146;17.112;2023-12-20T13:21:37;5.50;;;1.60;;
68951;SDS011;56000;51.146;17.112;2023-12-20T13:24:10;3.60;;;1.60;;
68951;SDS011;56000;51.146;17.112;2023-12-20T13:26:43;4.80;;;2.30;;
68951;SDS011;56000;51.146;17.112;2023-12-20T13:29:16;6.10;;;2.00;;
68951;SDS011;56000;51.146;17.112;2023-12-20T13:31:49;7.40;;;2.00;;
68951;SDS011;56000;51.146;17.112;2023-12-20T13:34:22;7.60;;;1.90;;
68951;SDS011;56000;51.146;17.112;2023-12-20T13:36:54;3.90;;;1.60;;
68951;SDS011;56000;51.146;17.112;2023-12-20T13:39:28;11.80;;;1.80;;
68951;SDS011;56000;51.146;17.112;2023-12-20T13:42:02;4.10;;;1.90;;
68951;SDS011;56000;51.146;17.112;2023-12-20T13:44:35;4.50;;;1.80;;
68951;SDS011;56000;51.146;17.112;2023-12-20T13:47:07;9.10;;;2.10;;
68951;SDS011;56000;51.146;17.112;2023-12-20T13:49:40;6.00;;;2.20;;
68951;SDS011;56000;51.146;17.112;2023-12-20T13:52:14;7.00;;;2.20;;
68951;SDS011;56000;51.146;17.112;2023-12-20T13:54:47;7.20;;;1.70;;
68951;SDS011;56000;51.146;17.112;2023-12-20T13:57:19;7.60;;;2.00;;
68951;SDS011;56000;51.146;17.112;2023-12-20T14:00:14;5.50;;;1.70;;
68951;SDS011;56000;51.146;17.112;2023-12-20T14:02:48;10.40;;;2.00;;
68951;SDS011;56000;51.146;17.112;2023-12-20T14:05:21;7.70;;;1.90;;
68951;SDS011;56000;51.146;17.112;2023-12-20T14:07:57;9.80;;;1.70;;
68951;SDS011;56000;51.146;17.112;2023-12-20T14:10:30;6.20;;;1.70;;
68951;SDS011;56000;51.146;17.112;2023-12-20T14:13:04;5.00;;;1.90;;
68951;SDS011;56000;51.146;17.112;2023-12-20T14:15:37;7.70;;;1.90;;
68951;SDS011;56000;51.146;17.112;2023-12-20T14:18:09;8.20;;;2.40;;
68951;SDS011;56000;51.146;17.112;2023-12-20T14:20:44;9.50;;;2.30;;
68951;SDS011;56000;51.146;17.112;2023-12-20T14:23:20;7.40;;;2.10;;
68951;SDS011;56000;51.146;17.112;2023-12-20T14:25:53;3.30;;;1.50;;
68951;SDS011;56000;51.146;17.112;2023-12-20T14:28:28;3.10;;;1.70;;
68951;SDS011;56000;51.146;17.112;2023-12-20T14:31:01;8.80;;;1.70;;
68951;SDS011;56000;51.146;17.112;2023-12-20T14:33:36;5.10;;;1.80;;
68951;SDS011;56000;51.146;17.112;2023-12-20T14:36:10;7.30;;;1.90;;
68951;SDS011;56000;51.146;17.112;2023-12-20T14:38:43;6.60;;;1.80;;
68951;SDS011;56000;51.146;17.112;2023-12-20T14:41:16;4.90;;;1.70;;
68951;SDS011;56000;51.146;17.112;2023-12-20T14:43:49;6.90;;;1.80;;
68951;SDS011;56000;51.146;17.112;2023-12-20T14:46:23;10.40;;;1.90;;
68951;SDS011;56000;51.146;17.112;2023-12-20T14:48:56;5.70;;;1.50;;
68951;SDS011;56000;51.146;17.112;2023-12-20T14:51:31;8.50;;;2.30;;
68951;SDS011;56000;51.146;17.112;2023-12-20T14:54:05;5.20;;;1.60;;
68951;SDS011;56000;51.146;17.112;2023-12-20T14:56:40;10.40;;;2.30;;
68951;SDS011;56000;51.146;17.112;2023-12-20T14:59:13;6.70;;;2.30;;
68951;SDS011;56000;51.146;17.112;2023-12-20T15:01:46;5.20;;;2.30;;
68951;SDS011;56000;51.146;17.112;2023-12-20T15:04:19;8.20;;;2.80;;
68951;SDS011;56000;51.146;17.112;2023-12-20T15:06:59;9.70;;;2.60;;
68951;SDS011;56000;51.146;17.112;2023-12-20T15:09:32;5.60;;;2.80;;
68951;SDS011;56000;51.146;17.112;2023-12-20T15:12:06;8.40;;;2.20;;
68951;SDS011;56000;51.146;17.112;2023-12-20T15:14:39;9.10;;;2.90;;